Time;durP1;ratioP1;P1;durP2;ratioP2;P2;SDS_P1;SDS_P2;PMS_P1;PMS_P2;Temp;Humidity;BMP_temperature;BMP_pressure;BME280_temperature;BME280_humidity;BME280_pressure;Samples;Min_cycle;Max_cycle;Signal;HPM_P1;HPM_P2
2022/08/02 00:02:16;;;;;;;4.95;1.80;;;;;;;16.25;100.00;95745.53;5129386;27;20617;-76
2022/08/02 00:04:41;;;;;;;3.50;2.00;;;;;;;16.35;100.00;95747.19;5113800;27;20450;-78
2022/08/02 00:07:07;;;;;;;3.35;1.98;;;;;;;16.27;100.00;95750.53;5124599;27;20047;-79
2022/08/02 00:09:33;;;;;;;3.00;1.80;;;;;;;16.23;100.00;95749.56;5120964;27;20038;-79
2022/08/02 00:11:58;;;;;;;2.28;1.60;;;;;;;16.33;100.00;95765.25;5131362;27;20039;-78
2022/08/02 00:14:24;;;;;;;3.15;1.98;;;;;;;16.28;100.00;95760.09;5119117;27;20031;-78
2022/08/02 00:16:49;;;;;;;3.97;1.80;;;;;;;16.30;100.00;95765.88;5133121;27;20043;-78
2022/08/02 00:19:15;;;;;;;2.60;1.75;;;;;;;16.26;100.00;95764.88;5120831;27;20456;-78
2022/08/02 00:21:40;;;;;;;2.65;1.80;;;;;;;16.25;100.00;95769.44;5108166;28;20116;-78
2022/08/02 00:24:06;;;;;;;3.20;1.90;;;;;;;16.24;100.00;95773.16;5117904;27;20054;-78
2022/08/02 00:26:31;;;;;;;2.42;1.55;;;;;;;16.26;100.00;95778.16;5125907;27;20043;-78
2022/08/02 00:28:57;;;;;;;4.85;1.67;;;;;;;16.25;100.00;95781.94;5117566;27;20092;-78
2022/08/02 00:31:22;;;;;;;2.53;1.75;;;;;;;16.32;100.00;95784.97;5128913;27;20039;-79
2022/08/02 00:33:48;;;;;;;2.72;2.10;;;;;;;16.31;100.00;95782.59;5111739;27;20042;-78
2022/08/02 00:36:13;;;;;;;2.95;1.60;;;;;;;16.27;100.00;95785.06;5113505;27;20047;-78
2022/08/02 00:38:39;;;;;;;3.08;1.73;;;;;;;16.36;100.00;95780.59;5135361;27;20031;-79
2022/08/02 00:41:11;;;;;;;3.28;1.90;;;;;;;16.33;100.00;95775.88;5131628;27;20518;-79
2022/08/02 00:43:36;;;;;;;3.67;1.70;;;;;;;16.33;100.00;95785.72;5121096;27;20043;-78
2022/08/02 00:46:02;;;;;;;3.22;2.33;;;;;;;16.27;100.00;95782.41;5128520;27;20051;-78
2022/08/02 00:48:27;;;;;;;3.20;1.77;;;;;;;16.23;100.00;95771.59;5108228;27;20046;-78
2022/08/02 00:50:52;;;;;;;2.58;1.95;;;;;;;16.21;100.00;95763.13;5131263;27;20042;-78
2022/08/02 00:53:18;;;;;;;21.83;9.20;;;;;;;16.10;100.00;95759.94;5103519;27;20035;-78
2022/08/02 00:55:43;;;;;;;3.35;1.90;;;;;;;16.18;100.00;95762.97;5122489;27;20369;-78
2022/08/02 00:58:09;;;;;;;3.25;1.90;;;;;;;16.16;100.00;95754.50;5112051;28;20052;-78
2022/08/02 01:00:34;;;;;;;3.08;1.98;;;;;;;16.16;100.00;95755.31;5128012;27;20031;-78
2022/08/02 01:03:00;;;;;;;3.63;2.10;;;;;;;16.18;100.00;95752.34;5106013;27;20048;-78
2022/08/02 01:05:26;;;;;;;3.88;2.00;;;;;;;16.17;100.00;95761.38;5121607;27;20046;-78
2022/08/02 01:07:51;;;;;;;6.93;2.05;;;;;;;16.15;100.00;95758.22;5127433;27;20048;-78
2022/08/02 01:10:17;;;;;;;3.88;2.10;;;;;;;16.15;100.00;95768.84;5113204;27;20088;-78
2022/08/02 01:12:43;;;;;;;3.03;1.90;;;;;;;16.18;100.00;95757.66;5117630;27;20080;-78
2022/08/02 01:15:11;;;;;;;4.80;1.98;;;;;;;16.22;100.00;95764.72;5121036;27;20043;-78
2022/08/02 01:17:55;;;;;;;4.03;2.40;;;;;;;16.24;100.00;95761.75;5122676;27;20110;-78
2022/08/02 01:20:43;;;;;;;3.17;2.00;;;;;;;16.18;100.00;95763.75;5129750;27;21703;-78
2022/08/02 01:23:17;;;;;;;4.35;2.22;;;;;;;16.17;100.00;95761.38;5122220;27;20123;-78
2022/08/02 01:26:23;;;;;;;6.85;2.38;;;;;;;16.14;100.00;95762.00;5122134;27;20042;-78
2022/08/02 01:29:01;;;;;;;3.35;1.90;;;;;;;16.15;100.00;95766.19;5100728;28;20039;-78
2022/08/02 01:31:46;;;;;;;4.53;2.15;;;;;;;16.06;100.00;95766.91;5123478;27;20042;-78
2022/08/02 01:34:28;;;;;;;2.88;2.10;;;;;;;16.08;100.00;95763.97;5126663;27;20042;-78
2022/08/02 01:37:23;;;;;;;3.10;2.10;;;;;;;16.07;100.00;95763.16;5128720;27;20481;-78
2022/08/02 01:39:53;;;;;;;5.65;2.50;;;;;;;16.00;100.00;95752.16;5126800;27;20105;-78
2022/08/02 01:42:21;;;;;;;4.43;2.40;;;;;;;16.02;100.00;95751.84;5120902;27;20047;-78
2022/08/02 01:44:49;;;;;;;4.82;2.40;;;;;;;15.97;100.00;95747.44;5125250;27;20404;-77
2022/08/02 01:47:20;;;;;;;2.92;2.03;;;;;;;15.93;100.00;95746.47;5127012;27;20062;-78
2022/08/02 01:49:49;;;;;;;4.47;2.22;;;;;;;15.88;100.00;95749.25;5118585;27;20050;-78
2022/08/02 01:52:22;;;;;;;4.38;2.50;;;;;;;15.86;100.00;95748.75;5124993;27;20483;-78
2022/08/02 01:55:01;;;;;;;3.45;2.22;;;;;;;15.89;100.00;95741.00;5117785;27;20489;-78
2022/08/02 01:57:33;;;;;;;3.28;2.30;;;;;;;15.92;100.00;95750.22;5124435;27;20038;-78
2022/08/02 02:00:01;;;;;;;3.72;2.30;;;;;;;15.83;100.00;95746.69;5130192;27;20035;-78
2022/08/02 02:02:28;;;;;;;4.53;2.25;;;;;;;15.80;100.00;95748.06;5125412;27;20064;-78
2022/08/02 02:04:56;;;;;;;6.22;2.53;;;;;;;15.67;100.00;95746.19;5122017;27;20035;-78
2022/08/02 02:07:23;;;;;;;4.22;2.30;;;;;;;15.72;100.00;95749.53;5124480;27;20074;-78
2022/08/02 02:09:50;;;;;;;4.75;2.20;;;;;;;15.77;100.00;95753.94;5108608;27;20231;-78
2022/08/02 02:12:18;;;;;;;5.93;2.22;;;;;;;15.72;100.00;95744.22;5111912;27;20548;-78
2022/08/02 02:14:43;;;;;;;3.70;2.40;;;;;;;15.72;100.00;95746.88;5127976;27;20039;-76
2022/08/02 02:17:12;;;;;;;4.07;2.33;;;;;;;15.65;100.00;95741.16;5110662;27;20031;-75
2022/08/02 02:19:38;;;;;;;4.65;2.40;;;;;;;15.61;100.00;95734.88;5128273;27;20043;-76
2022/08/02 02:22:04;;;;;;;3.70;2.40;;;;;;;15.60;100.00;95738.59;5116053;27;20053;-75
2022/08/02 02:24:30;;;;;;;5.10;2.42;;;;;;;15.60;100.00;95733.31;5122873;27;20039;-76
2022/08/02 02:27:00;;;;;;;4.30;2.78;;;;;;;15.56;100.00;95735.78;5118362;27;20216;-76
2022/08/02 02:29:29;;;;;;;3.38;2.20;;;;;;;15.55;100.00;95739.50;5124089;27;20100;-76
2022/08/02 02:31:57;;;;;;;3.75;2.40;;;;;;;15.52;100.00;95734.00;5128836;27;20043;-76
2022/08/02 02:34:29;;;;;;;3.53;2.40;;;;;;;15.58;100.00;95735.47;5132322;27;20050;-78
2022/08/02 02:36:58;;;;;;;4.80;2.58;;;;;;;15.51;100.00;95729.78;5131240;27;20039;-78
2022/08/02 02:39:27;;;;;;;4.22;2.60;;;;;;;15.55;100.00;95736.06;5127385;27;20035;-78
2022/08/02 02:41:55;;;;;;;3.83;2.47;;;;;;;15.60;100.00;95728.00;5107706;27;20051;-78
2022/08/02 02:44:21;;;;;;;3.60;2.30;;;;;;;15.56;100.00;95730.47;5096909;28;20052;-77
2022/08/02 02:46:50;;;;;;;4.25;2.40;;;;;;;15.56;100.00;95742.97;5129343;27;20046;-77
2022/08/02 02:49:17;;;;;;;4.43;2.47;;;;;;;15.57;100.00;95739.19;5123422;27;20495;-77
2022/08/02 02:51:44;;;;;;;4.50;2.70;;;;;;;15.62;100.00;95735.69;5129488;27;20140;-77
2022/08/02 02:54:11;;;;;;;4.47;2.60;;;;;;;15.59;100.00;95731.75;5121945;27;20397;-79
2022/08/02 02:56:37;;;;;;;4.45;2.60;;;;;;;15.66;100.00;95731.34;5103683;28;20039;-78
2022/08/02 02:59:04;;;;;;;4.30;2.45;;;;;;;15.62;100.00;95733.81;5122304;27;20047;-79
2022/08/02 03:01:30;;;;;;;6.10;2.90;;;;;;;15.61;100.00;95745.50;5132943;27;20042;-78
2022/08/02 03:03:59;;;;;;;5.07;2.80;;;;;;;15.59;100.00;95742.38;5131835;27;20042;-79
2022/08/02 03:06:25;;;;;;;5.68;2.80;;;;;;;15.70;100.00;95749.03;5106725;28;20054;-78
2022/08/02 03:08:50;;;;;;;3.92;2.55;;;;;;;15.72;100.00;95746.88;5102489;28;20671;-78
2022/08/02 03:11:16;;;;;;;6.15;2.95;;;;;;;15.74;100.00;95743.91;5116632;28;20141;-78
2022/08/02 03:13:42;;;;;;;3.85;2.47;;;;;;;15.75;100.00;95756.09;5131271;28;20043;-78
2022/08/02 03:16:09;;;;;;;3.80;2.55;;;;;;;15.67;100.00;95749.59;5131724;28;20043;-78
2022/08/02 03:18:41;;;;;;;4.85;2.63;;;;;;;15.70;100.00;95754.34;5126202;28;20112;-78
2022/08/02 03:21:12;;;;;;;5.95;2.55;;;;;;;15.71;100.00;95753.25;5121531;28;20047;-78
2022/08/02 03:23:41;;;;;;;4.50;2.30;;;;;;;15.58;100.00;95738.91;5129251;28;20050;-78
2022/08/02 03:26:07;;;;;;;4.82;2.40;;;;;;;15.67;100.00;95741.66;5130504;28;20496;-78
2022/08/02 03:28:34;;;;;;;4.75;2.50;;;;;;;15.64;100.00;95750.22;5128828;28;20035;-78
2022/08/02 03:31:00;;;;;;;5.90;2.80;;;;;;;15.61;100.00;95753.44;5132328;28;20090;-78
2022/08/02 03:33:27;;;;;;;5.68;2.60;;;;;;;15.66;100.00;95755.22;5132488;28;20049;-79
2022/08/02 03:35:55;;;;;;;5.18;2.42;;;;;;;15.60;100.00;95751.88;5099381;28;20058;-79
2022/08/02 03:38:23;;;;;;;6.15;3.03;;;;;;;15.63;100.00;95753.97;5126269;28;20099;-79
2022/08/02 03:40:49;;;;;;;3.50;2.38;;;;;;;15.56;100.00;95764.19;5124566;28;20039;-78
2022/08/02 03:43:16;;;;;;;5.68;2.53;;;;;;;15.53;100.00;95759.44;5109847;28;20039;-78
2022/08/02 03:45:43;;;;;;;4.53;2.38;;;;;;;15.49;100.00;95758.47;5111391;28;20043;-78
2022/08/02 03:48:11;;;;;;;4.10;2.60;;;;;;;15.46;100.00;95767.00;5112646;28;20066;-77
2022/08/02 03:50:38;;;;;;;3.60;2.38;;;;;;;15.37;100.00;95762.41;5121566;28;20409;-78
2022/08/02 03:53:03;;;;;;;5.13;2.85;;;;;;;15.37;100.00;95762.41;5111018;28;20087;-78
2022/08/02 03:55:29;;;;;;;4.00;2.70;;;;;;;15.35;100.00;95766.41;5121710;27;20035;-77
2022/08/02 03:57:55;;;;;;;5.55;2.80;;;;;;;15.33;100.00;95772.00;5126439;27;20043;-78
2022/08/02 04:00:21;;;;;;;4.13;2.63;;;;;;;15.31;100.00;95774.16;5125835;27;20084;-77
2022/08/02 04:02:48;;;;;;;4.20;2.60;;;;;;;15.35;100.00;95769.84;5132949;27;20532;-77
2022/08/02 04:05:14;;;;;;;6.38;2.67;;;;;;;15.33;100.00;95777.31;5115527;27;20503;-78
2022/08/02 04:07:40;;;;;;;3.78;2.58;;;;;;;15.33;100.00;95777.31;5134100;27;20514;-78
2022/08/02 04:10:06;;;;;;;5.90;2.67;;;;;;;15.30;100.00;95775.25;5123264;27;20118;-78
2022/08/02 04:12:31;;;;;;;5.25;2.70;;;;;;;15.37;100.00;95783.59;5127266;27;20458;-78
2022/08/02 04:14:58;;;;;;;4.28;2.63;;;;;;;15.38;100.00;95774.56;5129787;27;20699;-78
2022/08/02 04:17:24;;;;;;;4.70;2.85;;;;;;;15.37;100.00;95775.66;5134375;27;20038;-78
2022/08/02 04:19:57;;;;;;;7.88;2.83;;;;;;;15.41;100.00;95774.00;5123292;27;20050;-78
2022/08/02 04:22:28;;;;;;;9.07;3.03;;;;;;;15.41;100.00;95778.50;5123949;27;20478;-78
2022/08/02 04:24:58;;;;;;;7.88;3.00;;;;;;;15.41;100.00;95781.94;5134456;27;20039;-78
2022/08/02 04:27:24;;;;;;;5.15;2.50;;;;;;;15.35;100.00;95769.84;5133352;27;20035;-78
2022/08/02 04:29:51;;;;;;;5.30;2.50;;;;;;;15.35;100.00;95772.50;5130400;27;20035;-78
2022/08/02 04:32:17;;;;;;;7.25;2.67;;;;;;;15.37;100.00;95778.31;5133550;27;20066;-78
2022/08/02 04:34:43;;;;;;;4.68;2.90;;;;;;;15.44;100.00;95782.44;5109635;27;20126;-78
2022/08/02 04:37:11;;;;;;;5.15;2.88;;;;;;;15.43;100.00;95781.66;5131524;27;20053;-78
2022/08/02 04:39:39;;;;;;;4.25;2.75;;;;;;;15.53;100.00;95785.97;5134509;27;20039;-78
2022/08/02 04:42:05;;;;;;;6.72;2.90;;;;;;;15.56;100.00;95790.69;5128286;27;20075;-78
2022/08/02 04:44:30;;;;;;;5.70;3.03;;;;;;;15.64;100.00;95797.19;5133056;27;20077;-78
2022/08/02 04:46:57;;;;;;;4.50;2.70;;;;;;;15.59;100.00;95795.41;5134296;27;20039;-78
2022/08/02 04:49:23;;;;;;;6.00;3.00;;;;;;;15.70;100.00;95802.09;5115375;27;20054;-78
2022/08/02 04:51:48;;;;;;;7.78;2.70;;;;;;;15.75;100.00;95809.19;5133539;27;20436;-78
2022/08/02 04:54:14;;;;;;;7.00;2.85;;;;;;;15.66;100.00;95810.94;5132591;27;20050;-78
2022/08/02 04:56:40;;;;;;;3.92;2.47;;;;;;;15.67;100.00;95815.94;5105846;27;20038;-78
2022/08/02 04:59:06;;;;;;;8.52;3.15;;;;;;;15.67;100.00;95807.97;5132558;27;20035;-78
2022/08/02 05:01:31;;;;;;;8.15;3.20;;;;;;;15.61;100.00;95814.47;5129330;27;20043;-78
2022/08/02 05:03:57;;;;;;;4.82;2.80;;;;;;;15.68;100.00;95814.88;5115845;27;20050;-78
2022/08/02 05:06:22;;;;;;;7.00;3.13;;;;;;;15.70;100.00;95812.72;5115899;27;20041;-78
2022/08/02 05:08:48;;;;;;;4.00;2.70;;;;;;;15.68;100.00;95814.88;5123950;27;20489;-78
2022/08/02 05:11:14;;;;;;;4.18;2.40;;;;;;;15.62;100.00;95810.75;5116358;27;20046;-78
2022/08/02 05:13:40;;;;;;;5.88;2.92;;;;;;;15.60;100.00;95802.28;5115261;27;20031;-78
2022/08/02 05:16:06;;;;;;;6.20;3.05;;;;;;;15.64;100.00;95811.22;5121656;27;20492;-79
2022/08/02 05:18:31;;;;;;;7.57;2.90;;;;;;;15.68;100.00;95806.13;5124321;27;20118;-78
2022/08/02 05:20:57;;;;;;;5.13;2.70;;;;;;;15.64;100.00;95800.59;5132765;27;20035;-80
2022/08/02 05:23:22;;;;;;;6.45;3.13;;;;;;;15.65;100.00;95804.84;5131506;27;20522;-79
2022/08/02 05:25:48;;;;;;;6.20;3.22;;;;;;;15.79;100.00;95804.06;5110949;27;20100;-79
2022/08/02 05:28:13;;;;;;;6.03;3.10;;;;;;;15.91;100.00;95817.66;5118962;27;20035;-79
2022/08/02 05:30:39;;;;;;;5.38;2.78;;;;;;;15.89;100.00;95803.91;5133152;27;20059;-78
2022/08/02 05:33:05;;;;;;;4.57;2.83;;;;;;;15.93;100.00;95800.34;5114479;27;20050;-79
2022/08/02 05:35:30;;;;;;;4.88;2.97;;;;;;;15.94;100.00;95804.56;5113857;27;20441;-78
2022/08/02 05:37:56;;;;;;;4.40;2.67;;;;;;;16.00;100.00;95805.25;5127247;27;20065;-76
2022/08/02 05:40:22;;;;;;;5.57;3.35;;;;;;;16.12;100.00;95804.75;5112565;27;20043;-75
2022/08/02 05:42:47;;;;;;;4.25;2.78;;;;;;;16.15;100.00;95812.13;5117255;27;20047;-75
2022/08/02 05:45:13;;;;;;;4.60;2.63;;;;;;;16.28;100.00;95815.84;5118944;27;20035;-76
2022/08/02 05:47:38;;;;;;;4.68;2.60;;;;;;;16.25;100.00;95811.91;5100759;27;20051;-78
2022/08/02 05:50:07;;;;;;;3.88;2.58;;;;;;;16.36;100.00;95817.00;5125631;27;20442;-77
2022/08/02 05:52:45;;;;;;;4.18;2.33;;;;;;;16.50;100.00;95822.28;5130612;27;20039;-77
2022/08/02 05:55:17;;;;;;;4.57;2.70;;;;;;;16.63;100.00;95832.09;5125713;27;20051;-78
2022/08/02 05:58:02;;;;;;;4.97;2.75;;;;;;;16.64;100.00;95828.34;5102473;28;20047;-79
2022/08/02 06:00:30;;;;;;;6.60;2.60;;;;;;;16.67;100.00;95827.75;5115746;27;20043;-77
2022/08/02 06:03:20;;;;;;;4.85;2.55;;;;;;;16.67;100.00;95833.06;5129246;27;20046;-77
2022/08/02 06:05:55;;;;;;;3.25;2.20;;;;;;;16.64;100.00;95836.31;5120126;27;20173;-77
2022/08/02 06:08:26;;;;;;;3.78;2.45;;;;;;;16.72;100.00;95835.63;5119222;27;20476;-80
2022/08/02 06:10:55;;;;;;;4.15;2.53;;;;;;;17.06;100.00;95838.84;5123418;27;20064;-79
2022/08/02 06:13:22;;;;;;;3.60;2.42;;;;;;;17.16;100.00;95827.97;5127631;27;20063;-77
2022/08/02 06:15:50;;;;;;;5.22;2.50;;;;;;;17.29;100.00;95836.97;5130408;27;20050;-80
2022/08/02 06:18:16;;;;;;;3.88;2.40;;;;;;;17.29;100.00;95835.09;5127300;27;20039;-79
2022/08/02 06:20:43;;;;;;;4.38;2.25;;;;;;;17.33;100.00;95837.94;5128572;27;20035;-79
2022/08/02 06:23:09;;;;;;;3.88;2.30;;;;;;;17.47;100.00;95838.63;5124575;27;20064;-80
2022/08/02 06:25:40;;;;;;;4.60;2.10;;;;;;;17.57;100.00;95847.44;5103004;27;20036;-80
2022/08/02 06:28:06;;;;;;;6.05;2.22;;;;;;;17.70;100.00;95838.59;5125327;27;20043;-80
2022/08/02 06:30:32;;;;;;;4.63;2.22;;;;;;;17.81;100.00;95834.56;5101820;27;20484;-78
2022/08/02 06:32:58;;;;;;;5.03;2.40;;;;;;;17.86;100.00;95843.50;5114631;27;20442;-80
2022/08/02 06:35:32;;;;;;;4.28;2.40;;;;;;;18.05;100.00;95836.06;5110202;28;20036;-77
2022/08/02 06:37:59;;;;;;;3.65;2.30;;;;;;;18.04;100.00;95833.72;5120851;27;20408;-79
2022/08/02 06:40:55;;;;;;;3.35;2.38;;;;;;;17.98;100.00;95830.41;5121959;27;20067;-78
2022/08/02 06:43:44;;;;;;;5.70;2.20;;;;;;;18.27;100.00;95831.75;5115264;27;20046;-78
2022/08/02 06:46:10;;;;;;;5.93;2.55;;;;;;;18.38;100.00;95830.34;5122332;27;20043;-86
2022/08/02 06:48:36;;;;;;;3.47;2.20;;;;;;;18.34;100.00;95832.06;5105394;27;20035;-82
2022/08/02 06:51:02;;;;;;;4.35;2.25;;;;;;;18.47;100.00;95831.13;5119095;27;20044;-79
2022/08/02 06:53:28;;;;;;;2.95;2.00;;;;;;;18.61;100.00;95824.91;5116243;27;20035;-78
2022/08/02 06:55:54;;;;;;;4.15;2.38;;;;;;;18.60;100.00;95828.66;5109048;27;20035;-79
2022/08/02 06:58:20;;;;;;;2.88;2.00;;;;;;;18.68;100.00;95825.22;5123494;27;20035;-78
2022/08/02 07:00:46;;;;;;;3.30;1.90;;;;;;;18.71;100.00;95829.91;5126376;27;20038;-78
2022/08/02 07:03:11;;;;;;;3.97;2.20;;;;;;;18.65;100.00;95826.63;5115453;27;20043;-78
2022/08/02 07:05:37;;;;;;;2.92;1.90;;;;;;;18.72;100.00;95831.47;5096991;28;20043;-77
2022/08/02 07:08:03;;;;;;;3.20;2.10;;;;;;;18.70;100.00;95828.34;5117652;28;20040;-77
2022/08/02 07:10:29;;;;;;;3.78;2.10;;;;;;;18.49;100.00;95818.28;5119089;28;20039;-77
2022/08/02 07:12:54;;;;;;;3.65;2.03;;;;;;;18.72;100.00;95820.81;5122804;28;20047;-78
2022/08/02 07:15:19;;;;;;;3.22;2.22;;;;;;;18.76;100.00;95815.63;5125756;28;20035;-78
2022/08/02 07:17:45;;;;;;;3.63;1.95;;;;;;;18.93;100.00;95825.53;5108141;28;20070;-79
2022/08/02 07:20:12;;;;;;;2.67;1.98;;;;;;;18.81;100.00;95829.59;5103561;28;20683;-80
2022/08/02 07:22:37;;;;;;;4.13;2.08;;;;;;;18.80;100.00;95817.34;5107031;28;20043;-78
2022/08/02 07:25:04;;;;;;;3.53;2.10;;;;;;;19.12;100.00;95828.66;5104868;28;20066;-78
2022/08/02 07:27:29;;;;;;;3.47;2.08;;;;;;;19.15;100.00;95828.03;5121013;28;20035;-79
2022/08/02 07:29:55;;;;;;;7.65;2.35;;;;;;;19.37;100.00;95824.38;5098586;28;20072;-79
2022/08/02 07:32:23;;;;;;;3.17;2.00;;;;;;;19.28;100.00;95820.16;5109514;27;20472;-78
2022/08/02 07:34:49;;;;;;;2.88;2.00;;;;;;;19.24;100.00;95821.88;5123893;27;20050;-78
2022/08/02 07:37:14;;;;;;;3.55;2.08;;;;;;;19.35;100.00;95815.09;5106318;27;20475;-79
2022/08/02 07:39:40;;;;;;;4.15;2.10;;;;;;;19.26;100.00;95806.34;5129279;27;20062;-76
2022/08/02 07:42:06;;;;;;;3.67;2.00;;;;;;;19.15;100.00;95814.69;5102114;28;20051;-77
2022/08/02 07:44:33;;;;;;;4.43;2.10;;;;;;;19.13;100.00;95814.22;5127507;27;20316;-77
2022/08/02 07:47:03;;;;;;;4.65;2.25;;;;;;;19.13;100.00;95814.22;5131599;27;20035;-78
2022/08/02 07:49:28;;;;;;;5.45;2.22;;;;;;;19.23;100.00;95820.34;5124240;27;20069;-77
2022/08/02 07:51:54;;;;;;;4.55;2.20;;;;;;;19.26;100.00;95806.34;5128109;27;20112;-77
2022/08/02 07:54:20;;;;;;;5.07;2.20;;;;;;;19.62;100.00;95808.59;5118661;27;20067;-77
2022/08/02 07:56:45;;;;;;;3.85;2.20;;;;;;;19.43;100.00;95811.63;5130078;27;20036;-79
2022/08/02 07:59:11;;;;;;;14.80;2.50;;;;;;;19.40;100.00;95804.28;5131155;27;20393;-79
2022/08/02 08:01:36;;;;;;;3.80;2.20;;;;;;;19.82;100.00;95801.78;5105846;27;20043;-76
2022/08/02 08:04:03;;;;;;;3.35;2.10;;;;;;;19.71;100.00;95805.88;5129132;27;20047;-77
2022/08/02 08:06:29;;;;;;;4.03;2.20;;;;;;;19.62;100.00;95810.47;5131823;27;20492;-79
2022/08/02 08:08:55;;;;;;;3.97;2.38;;;;;;;19.56;100.00;95799.97;5125152;27;20583;-79
2022/08/02 08:11:21;;;;;;;3.70;2.20;;;;;;;19.59;100.00;95808.44;5117152;27;20440;-77
2022/08/02 08:13:47;;;;;;;3.65;2.50;;;;;;;19.54;100.00;95801.41;5123018;27;20126;-77
2022/08/02 08:16:12;;;;;;;6.07;2.30;;;;;;;19.53;100.00;95800.59;5134251;27;20049;-77
2022/08/02 08:18:38;;;;;;;5.72;2.55;;;;;;;19.67;100.00;95799.63;5124079;27;20035;-80
2022/08/02 08:21:03;;;;;;;4.00;2.13;;;;;;;19.90;100.00;95798.28;5129518;27;20051;-84
2022/08/02 08:23:29;;;;;;;4.45;2.10;;;;;;;19.94;100.00;95802.97;5131302;27;20054;-82
2022/08/02 08:25:54;;;;;;;4.10;2.30;;;;;;;20.10;99.06;95796.00;5131195;27;20043;-79
2022/08/02 08:28:20;;;;;;;3.63;2.17;;;;;;;20.06;100.00;95793.16;5129827;27;20035;-79
2022/08/02 08:30:46;;;;;;;5.45;2.10;;;;;;;20.05;98.70;95798.84;5130230;27;20039;-77
2022/08/02 08:33:12;;;;;;;3.20;2.03;;;;;;;20.30;97.25;95807.03;5131697;27;20525;-78
2022/08/02 08:35:37;;;;;;;4.80;2.17;;;;;;;20.34;96.51;95800.72;5126253;27;20046;-77
2022/08/02 08:38:03;;;;;;;3.05;2.17;;;;;;;20.29;97.85;95802.81;5124103;27;20043;-77
2022/08/02 08:40:29;;;;;;;4.43;2.30;;;;;;;20.35;98.26;95801.50;5103881;28;20046;-78
2022/08/02 08:42:54;;;;;;;6.70;2.30;;;;;;;20.38;99.94;95795.50;5123369;27;20519;-78
2022/08/02 08:45:20;;;;;;;3.08;2.20;;;;;;;20.42;98.21;95799.84;5122671;27;20486;-78
2022/08/02 08:47:51;;;;;;;5.05;2.20;;;;;;;20.58;98.05;95802.72;5108523;27;20046;-78
2022/08/02 08:50:22;;;;;;;4.43;2.40;;;;;;;20.80;93.52;95795.50;5113214;27;20497;-78
2022/08/02 08:53:02;;;;;;;3.55;2.10;;;;;;;20.80;93.29;95800.84;5132436;27;20035;-78
2022/08/02 08:55:29;;;;;;;3.72;2.17;;;;;;;20.91;89.37;95790.53;5126698;27;20114;-77
2022/08/02 08:57:56;;;;;;;3.80;1.90;;;;;;;20.92;91.53;95798.25;5134034;27;20470;-77
2022/08/02 09:00:22;;;;;;;4.30;2.15;;;;;;;20.85;86.02;95792.63;5103403;27;20043;-80
2022/08/02 09:02:48;;;;;;;3.00;2.03;;;;;;;20.82;91.63;95793.28;5112068;27;20073;-78
2022/08/02 09:05:15;;;;;;;3.08;1.80;;;;;;;21.03;86.80;95797.81;5111503;27;20043;-78
2022/08/02 09:07:43;;;;;;;3.67;2.10;;;;;;;21.29;83.83;95795.69;5109924;28;20485;-78
2022/08/02 09:10:36;;;;;;;3.30;2.03;;;;;;;21.38;82.37;95802.84;5127667;27;20110;-78
2022/08/02 09:13:11;;;;;;;2.35;1.88;;;;;;;21.86;81.65;95789.84;5123099;27;20043;-77
2022/08/02 09:15:39;;;;;;;3.03;2.00;;;;;;;21.70;79.61;95787.06;5102755;27;20084;-76
2022/08/02 09:18:06;;;;;;;2.53;1.90;;;;;;;21.47;82.57;95792.81;5125097;27;20039;-78
2022/08/02 09:20:51;;;;;;;3.75;2.08;;;;;;;21.46;79.66;95793.91;5112001;27;20081;-78
2022/08/02 09:23:17;;;;;;;2.85;1.90;;;;;;;21.39;85.29;95781.09;5126268;27;20058;-78
2022/08/02 09:25:54;;;;;;;3.40;2.00;;;;;;;21.51;83.32;95791.06;5133392;27;20065;-78
2022/08/02 09:28:25;;;;;;;3.85;2.10;;;;;;;21.60;81.16;95789.03;5133435;27;20043;-77
2022/08/02 09:30:50;;;;;;;5.20;2.40;;;;;;;22.01;80.60;95796.41;5113159;27;20539;-77
2022/08/02 09:33:26;;;;;;;2.88;1.98;;;;;;;22.09;77.29;95792.84;5133405;27;20204;-78
2022/08/02 09:36:08;;;;;;;3.00;1.98;;;;;;;22.11;78.65;95795.97;5130913;27;20518;-77
2022/08/02 09:38:35;;;;;;;3.20;2.00;;;;;;;22.26;79.00;95792.59;5102448;27;20492;-77
2022/08/02 09:41:03;;;;;;;2.53;2.00;;;;;;;22.11;78.01;95801.31;5125982;27;20062;-77
2022/08/02 09:43:36;;;;;;;3.10;2.10;;;;;;;22.03;77.28;95802.25;5108394;28;20108;-77
2022/08/02 09:46:25;;;;;;;4.85;2.08;;;;;;;21.94;80.67;95808.50;5126648;27;20039;-78
2022/08/02 09:49:02;;;;;;;2.83;2.10;;;;;;;21.95;78.08;95804.69;5132636;27;20586;-77
2022/08/02 09:51:38;;;;;;;3.33;1.92;;;;;;;22.00;76.74;95806.38;5111507;27;20043;-77
2022/08/02 09:54:08;;;;;;;5.00;2.20;;;;;;;22.13;77.40;95801.78;5132449;27;20550;-78
2022/08/02 09:56:51;;;;;;;2.30;1.90;;;;;;;22.31;75.40;95802.31;5129088;27;20092;-77
2022/08/02 09:59:20;;;;;;;4.28;1.98;;;;;;;22.77;75.19;95794.06;5124153;27;20088;-77
2022/08/02 10:01:47;;;;;;;3.67;2.25;;;;;;;22.99;72.96;95801.56;5128055;27;20051;-77
2022/08/02 10:04:14;;;;;;;3.28;1.80;;;;;;;23.02;71.76;95795.53;5129164;27;20051;-77
2022/08/02 10:06:42;;;;;;;3.40;2.00;;;;;;;23.27;71.75;95795.41;5131512;27;20035;-79
2022/08/02 10:09:09;;;;;;;3.92;2.10;;;;;;;23.21;73.09;95794.13;5101574;27;20039;-78
2022/08/02 10:11:35;;;;;;;3.30;1.90;;;;;;;23.33;70.71;95796.75;5109895;28;20061;-78
2022/08/02 10:14:06;;;;;;;4.03;2.00;;;;;;;23.61;68.58;95793.22;5132402;27;20492;-78
2022/08/02 10:16:33;;;;;;;2.15;1.80;;;;;;;23.76;68.81;95790.84;5131724;27;20039;-78
2022/08/02 10:19:00;;;;;;;3.13;2.05;;;;;;;23.66;66.93;95790.28;5131563;27;20042;-78
2022/08/02 10:21:30;;;;;;;2.50;2.10;;;;;;;23.82;68.46;95786.78;5104368;28;20125;-78
2022/08/02 10:24:08;;;;;;;2.67;1.85;;;;;;;24.27;68.63;95790.13;5112604;27;20540;-78
2022/08/02 10:26:35;;;;;;;2.42;1.80;;;;;;;24.37;66.53;95787.66;5102494;28;20063;-78
2022/08/02 10:29:01;;;;;;;2.08;1.60;;;;;;;24.56;65.86;95786.13;5103812;27;20039;-78
2022/08/02 10:31:40;;;;;;;5.72;1.98;;;;;;;24.49;65.58;95780.59;5125402;27;20039;-77
2022/08/02 10:34:11;;;;;;;4.03;2.10;;;;;;;24.34;65.39;95788.38;5128083;27;20086;-78
2022/08/02 10:36:40;;;;;;;4.65;2.03;;;;;;;24.51;65.61;95783.69;5129053;27;20046;-79
2022/08/02 10:39:06;;;;;;;2.28;1.88;;;;;;;24.66;66.12;95790.97;5128580;27;20059;-77
2022/08/02 10:41:48;;;;;;;3.63;1.90;;;;;;;24.30;66.58;95786.75;5120963;27;20039;-78
2022/08/02 10:44:30;;;;;;;3.90;2.10;;;;;;;24.04;66.11;95782.72;5103025;27;20069;-79
2022/08/02 10:47:18;;;;;;;2.80;2.00;;;;;;;24.65;65.38;95777.88;5106410;27;20401;-80
2022/08/02 10:50:04;;;;;;;3.55;2.17;;;;;;;25.27;62.12;95764.44;5123784;27;20031;-80
2022/08/02 10:52:30;;;;;;;2.83;1.90;;;;;;;25.17;63.67;95765.00;5099232;27;20043;-80
2022/08/02 10:54:56;;;;;;;4.72;1.90;;;;;;;25.38;63.26;95770.78;5127413;27;20041;-80
2022/08/02 10:57:25;;;;;;;5.10;2.90;;;;;;;25.90;59.14;95762.34;5130703;27;20062;-78
2022/08/02 11:00:14;;;;;;;5.28;2.05;;;;;;;25.34;60.42;95764.59;5105336;28;20039;-79
2022/08/02 11:02:46;;;;;;;2.20;1.80;;;;;;;25.82;57.87;95753.41;5122902;27;20047;-80
2022/08/02 11:05:26;;;;;;;3.72;2.15;;;;;;;26.55;58.92;95757.84;5096036;28;20416;-77
2022/08/02 11:07:51;;;;;;;3.80;1.95;;;;;;;26.77;56.03;95759.69;5123895;27;20182;-79
2022/08/02 11:10:33;;;;;;;3.08;1.90;;;;;;;26.76;56.51;95763.53;5102787;28;20564;-78
2022/08/02 11:13:13;;;;;;;3.33;2.00;;;;;;;25.79;57.07;95761.41;5124896;28;20046;-78
2022/08/02 11:15:50;;;;;;;3.97;1.90;;;;;;;25.70;57.89;95749.00;5116755;27;20035;-78
2022/08/02 11:18:16;;;;;;;2.72;1.90;;;;;;;25.83;56.28;95751.47;5125160;27;20051;-78
2022/08/02 11:20:43;;;;;;;3.63;2.20;;;;;;;26.38;54.93;95733.00;5106560;28;20043;-78
2022/08/02 11:23:33;;;;;;;2.28;1.90;;;;;;;27.23;52.25;95736.25;5123546;28;20428;-78
2022/08/02 11:25:58;;;;;;;3.38;1.90;;;;;;;27.40;52.23;95730.25;5122747;28;20036;-77
2022/08/02 11:28:25;;;;;;;3.10;2.00;;;;;;;27.40;51.20;95730.25;5125414;27;20059;-77
2022/08/02 11:30:59;;;;;;;3.88;1.80;;;;;;;27.99;50.08;95726.84;5126207;28;20035;-79
2022/08/02 11:33:32;;;;;;;3.22;1.63;;;;;;;28.78;46.70;95724.50;5132228;28;20062;-78
2022/08/02 11:36:05;;;;;;;3.08;1.67;;;;;;;28.07;46.68;95717.59;5128012;28;20524;-79